Latest Coastal Weather Observations for Kingscote

IDS60701

Issued at 9:21 am CST Friday 30 September 2016 (issued every 10 minutes, with the page automatically refreshed every 10 minutes)

About coastal observations | Map of coastal stations | Coastal observations for SA | Marine services | Other Formats
Station Details ID: 022841 Name: KINGSCOTE AERO Lat: -35.71 Lon: 137.52 Height: 6.23 m
Data from the previous 72 hours. | See also: Recent months at Kingscote
Date/Time
CST
Temp
°C
Wind Pressure Rain since
9am
mm
Weather Cloud Vis
km
Sea
Height
m
Swell
Dir  Spd
kts
Gust
kts
hPa Trend Height
m
Period
s
Dir
30/09:16am 13.0 SW 18 30 1003.2 - 0.0 - Partly cloudy 10 - - - -
30/09:00am 13.7 SW 19 27 1002.8 - 10.4 - Partly cloudy 10 - - - -
30/08:30am 13.5 SSW 17 24 1002.3 - 10.4 - Partly cloudy 10 - - - -
30/08:00am 12.5 SW 17 28 1002.3 - 10.4 - Partly cloudy 10 - - - -
30/07:51am 12.1 SW 16 28 1002.1 - 10.4 - Partly cloudy 10 - - - -
30/07:30am 11.8 SW 18 25 1001.9 - 10.4 - Partly cloudy 10 - - - -
30/07:16am 11.9 SW 17 27 1001.9 - 10.4 - Partly cloudy 10 - - - -
30/07:00am 11.8 SW 15 22 1001.4 - 10.4 - Partly cloudy 10 - - - -
30/06:30am 11.4 SW 15 20 1000.9 - 10.4 - Partly cloudy 10 - - - -
30/06:22am 11.4 SW 16 26 1000.7 - 10.4 - Partly cloudy 10 - - - -
30/06:18am 11.4 SW 15 26 1000.7 - 10.4 - Partly cloudy 10 - - - -
30/06:00am 10.8 W 11 15 1000.3 - 10.4 Rain Cloudy 7 - - - -
30/05:55am 10.6 W 11 15 1000.3 - 10.2 - Partly cloudy 9 - - - -
30/05:39am 10.3 W 9 13 1000.0 - 10.0 - Partly cloudy 9 - - - -
30/05:30am 10.2 W 9 13 999.9 - 10.0 - Partly cloudy 6 - - - -
30/05:25am 10.2 W 9 12 999.8 - 10.0 - Partly cloudy 5 - - - -
30/05:00am 10.0 W 8 11 999.5 - 9.8 - Partly cloudy 10 - - - -
30/04:30am 9.9 W 7 10 999.0 - 9.8 - Cloudy 10 - - - -
30/04:00am 10.2 W 8 11 999.0 - 9.8 - Partly cloudy 10 - - - -
30/03:30am 10.2 W 9 11 998.7 - 9.8 - Cloudy 10 - - - -
30/03:00am 9.9 W 6 8 998.4 - 9.8 Recent precip. Cloudy 10 - - - -
30/02:30am 10.3 SW 12 17 998.0 - 9.8 - Partly cloudy 10 - - - -
30/02:00am 10.1 SW 9 13 997.9 - 9.4 - Partly cloudy 10 - - - -
30/01:30am 10.3 SW 12 18 997.5 - 9.4 - Partly cloudy 10 - - - -
30/01:00am 9.8 SW 10 13 997.2 - 9.4 - Partly cloudy 10 - - - -
30/12:31am 9.7 SSW 12 17 996.8 - 9.4 - Partly cloudy 10 - - - -
30/12:30am 9.6 SSW 12 18 996.8 - 9.4 - Partly cloudy 10 - - - -
30/12:13am 10.0 SSW 18 29 996.8 - 8.8 - Partly cloudy 3 - - - -
30/12:10am 10.2 SSW 15 22 996.7 - 8.0 - Partly cloudy 5 - - - -
30/12:00am 10.1 SW 9 11 996.5 - 7.6 Rain Cloudy 10 - - - -
 
Date/Time
CST
Temp
°C
Wind Pressure Rain since
9am
mm
Weather Cloud Vis
km
Sea
Height
m
Swell
Dir  Spd
kts
Gust
kts
hPa Trend Height
m
Period
s
Dir
29/11:30pm 9.8 S 14 19 996.1 - 7.4 - Partly cloudy 10 - - - -
29/11:00pm 10.3 SSW 14 18 995.3 - 6.6 - Partly cloudy 10 - - - -
29/10:31pm 10.8 SSW 19 30 994.3 - 6.6 - Partly cloudy 10 - - - -
29/10:30pm 10.8 SSW 19 30 994.3 - 6.6 - Partly cloudy 10 - - - -
29/10:29pm 10.9 SSW 20 32 994.3 - 6.6 - Partly cloudy 10 - - - -
29/10:26pm 11.0 SW 22 32 994.2 - 6.6 - Partly cloudy 10 - - - -
29/10:00pm 10.8 WSW 24 35 993.2 - 5.8 - Partly cloudy 4 - - - -
29/09:51pm 10.6 WSW 22 33 993.2 - 5.6 - Partly cloudy 5 - - - -
29/09:30pm 10.5 WSW 25 38 993.4 - 5.2 - Partly cloudy 4 - - - -
29/09:16pm 10.4 WSW 23 34 993.3 - 5.0 - Partly cloudy 5 - - - -
29/09:01pm 10.5 WSW 22 32 993.3 - 4.8 - Partly cloudy 7 - - - -
29/09:00pm 10.5 WSW 23 32 993.2 - 4.8 Rain Cloudy 7 - - - -
29/08:37pm 10.5 WSW 23 35 993.3 - 4.2 - Partly cloudy 8 - - - -
29/08:30pm 10.5 WSW 23 31 993.2 - 4.2 - Partly cloudy 7 - - - -
29/08:22pm 10.6 WSW 25 35 993.1 - 4.0 - Partly cloudy 9 - - - -
29/08:12pm 10.5 WSW 24 36 993.0 - 4.0 - Partly cloudy 5 - - - -
29/08:08pm 10.6 WSW 24 32 993.0 - 4.0 - Partly cloudy 5 - - - -
29/08:00pm 10.6 WSW 23 31 992.9 - 3.6 - Partly cloudy 6 - - - -
29/07:30pm 10.6 WSW 23 35 992.5 - 3.4 - Partly cloudy 9 - - - -
29/07:01pm 10.6 WSW 24 35 992.0 - 3.2 - Partly cloudy 9 - - - -
29/07:00pm 10.6 WSW 24 31 992.0 - 3.0 - Partly cloudy 9 - - - -
29/06:30pm 10.7 WSW 26 38 991.4 - 2.6 - Partly cloudy 7 - - - -
29/06:00pm 11.0 WSW 27 39 990.9 - 2.4 - Cloudy 10 - - - -
29/05:36pm 11.3 WSW 27 40 990.4 - 2.4 - Partly cloudy 10 - - - -
29/05:30pm 11.3 WSW 26 34 990.4 - 2.4 - Partly cloudy 10 - - - -
29/05:08pm 11.3 WSW 25 38 989.9 - 2.4 - Partly cloudy 9 - - - -
29/05:00pm 11.3 WSW 26 36 989.7 - 2.4 - Partly cloudy 6 - - - -
29/04:47pm 11.3 WSW 25 36 989.4 - 2.2 - Partly cloudy 5 - - - -
29/04:43pm 11.4 WSW 26 36 989.3 - 2.0 - Partly cloudy 6 - - - -
29/04:30pm 11.7 WSW 26 35 989.1 - 2.0 - Partly cloudy 9 - - - -
29/04:00pm 12.1 SW 29 41 988.2 - 1.8 - Partly cloudy 10 - - - -
29/03:30pm 11.7 WSW 27 45 987.4 - 1.8 - Partly cloudy 6 - - - -
29/03:28pm 11.7 SW 26 45 987.4 - 1.8 - Partly cloudy 7 - - - -
29/03:26pm 11.7 SW 25 45 987.2 - 1.6 - Partly cloudy 9 - - - -
29/03:24pm 12.0 SW 23 33 987.4 - 1.6 - Partly cloudy 10 - - - -
29/03:23pm 12.0 SW 23 33 987.3 - 1.6 - Partly cloudy 10 - - - -
29/03:15pm 11.8 SW 23 32 987.2 - 1.6 - Partly cloudy 6 - - - -
29/03:00pm 11.7 SW 16 29 987.1 - 1.4 Rain Cloudy 4 - - - -
29/02:59pm 11.8 SW 15 26 987.1 - 1.2 - Partly cloudy 5 - - - -
29/02:57pm 11.9 WSW 15 22 987.0 - 0.8 - Partly cloudy 5 - - - -
29/02:30pm 13.6 SW 18 24 986.5 - 0.0 - Partly cloudy 10 - - - -
29/02:00pm 13.5 WSW 11 16 985.7 - 0.0 - Partly cloudy 10 - - - -
29/01:30pm 13.6 W 11 14 985.2 - 0.0 - Cloudy 10 - - - -
29/01:00pm 14.1 WNW 12 16 984.8 - 0.0 - Partly cloudy 10 - - - -
29/12:30pm 15.6 WSW 11 17 984.8 - 0.0 - Partly cloudy 10 - - - -
29/12:00pm 15.2 WSW 12 16 984.7 - 0.0 - Cloudy 10 - - - -
29/11:30am 16.5 WSW 18 23 984.8 - 0.0 - Partly cloudy 10 - - - -
29/11:00am 15.4 WSW 18 24 984.6 - 0.0 - Partly cloudy 10 - - - -
29/10:30am 14.1 SW 14 19 984.3 - 0.0 - Partly cloudy 10 - - - -
29/10:22am 12.5 SW 17 27 984.5 - 0.0 - Partly cloudy 10 - - - -
29/10:00am 14.6 SW 20 27 984.2 - 0.0 - Partly cloudy 10 - - - -
29/09:30am 13.0 SW 17 24 984.0 - 0.0 - Partly cloudy 10 - - - -
29/09:07am 12.7 SW 23 33 983.3 - 0.0 - Partly cloudy 10 - - - -
29/09:00am 12.0 SW 25 33 983.0 - 7.6 Recent precip. Cloudy 10 - - - -
29/08:30am 11.4 SW 21 31 982.2 - 7.6 - Partly cloudy 10 - - - -
29/08:15am 11.8 SW 20 30 981.6 - 7.6 - Partly cloudy 10 - - - -
29/08:00am 12.1 SW 16 25 981.0 - 7.4 - - 10 - - - -
29/07:30am 10.4 SW 16 20 979.9 - 7.4 - Partly cloudy 10 - - - -
29/07:00am 9.4 SW 13 17 978.9 - 7.4 - Partly cloudy 10 - - - -
29/06:30am 9.2 SSW 10 13 977.8 - 7.4 - Partly cloudy 10 - - - -
29/06:00am 9.4 SSW 8 11 976.7 - 7.4 Recent precip. Mostly cloudy 10 - - - -
29/05:30am 10.0 N 3 6 975.9 - 7.2 - Partly cloudy 10 - - - -
29/05:00am 10.1 N 8 12 975.8 - 7.2 - Partly cloudy 10 - - - -
29/04:30am 9.8 N 12 19 976.1 - 7.2 - Partly cloudy 10 - - - -
29/04:00am 9.5 N 14 21 976.6 - 7.2 - Partly cloudy 8 - - - -
29/03:36am 9.6 N 15 25 977.3 - 6.6 - Partly cloudy 9 - - - -
29/03:30am 9.5 N 15 23 977.5 - 6.4 - Partly cloudy 10 - - - -
29/03:00am 9.2 N 18 27 978.6 - 5.8 Rain Cloudy 9 - - - -
29/02:30am 9.1 N 18 29 979.8 - 5.0 - Partly cloudy 8 - - - -
29/02:17am 8.7 N 18 30 980.5 - 5.0 - Partly cloudy 9 - - - -
29/02:04am 8.5 N 18 31 981.3 - 4.8 - Partly cloudy 5 - - - -
29/02:01am 8.5 N 18 29 981.5 - 4.8 - Partly cloudy 6 - - - -
29/02:00am 8.5 N 18 26 981.6 - 4.8 - Partly cloudy 6 - - - -
29/01:30am 9.6 N 21 34 982.5 - 3.4 - Partly cloudy 10 - - - -
29/01:24am 9.7 N 19 31 982.8 - 3.4 - Partly cloudy 10 - - - -
29/01:00am 9.6 N 16 25 983.8 - 3.4 - Partly cloudy 10 - - - -
29/12:30am 10.3 NNW 20 32 985.0 - 3.4 - Partly cloudy 10 - - - -
29/12:00am 10.7 NNW 17 30 985.7 - 3.4 - Cloudy 10 - - - -
 
Date/Time
CST
Temp
°C
Wind Pressure Rain since
9am
mm
Weather Cloud Vis
km
Sea
Height
m
Swell
Dir  Spd
kts
Gust
kts
hPa Trend Height
m
Period
s
Dir
28/11:30pm 11.0 NNW 19 32 986.6 - 3.4 - Partly cloudy 10 - - - -
28/11:03pm 10.8 NW 16 26 987.3 - 3.4 - Partly cloudy 10 - - - -
28/11:00pm 10.8 NW 17 26 987.4 - 3.4 - Partly cloudy 10 - - - -
28/10:50pm 10.8 NW 15 27 987.6 - 3.4 - Partly cloudy 10 - - - -
28/10:30pm 10.6 NW 15 23 988.2 - 3.4 - Partly cloudy 10 - - - -
28/10:00pm 10.4 NW 19 33 988.8 - 3.4 - Partly cloudy 10 - - - -
28/09:42pm 10.7 NW 15 27 989.4 - 3.4 - Partly cloudy 10 - - - -
28/09:30pm 11.0 NNW 11 16 989.0 - 3.4 - Partly cloudy 10 - - - -
28/09:00pm 11.1 WNW 15 22 989.4 - 3.4 - Mostly cloudy 10 - - - -
28/08:30pm 10.7 WNW 12 18 989.7 - 3.4 - - 10 - - - -
28/08:00pm 10.6 WNW 11 16 989.6 - 3.4 - Partly cloudy 10 - - - -
28/07:30pm 10.8 WNW 12 20 989.5 - 3.4 - Partly cloudy 10 - - - -
28/07:00pm 10.8 WNW 12 17 989.0 - 3.4 - Partly cloudy 10 - - - -
28/06:30pm 11.1 NW 12 18 989.2 - 3.4 - Partly cloudy 10 - - - -
28/06:00pm 11.0 WNW 14 18 989.1 - 3.2 Recent precip. Mostly cloudy 10 - - - -
28/05:30pm 11.3 W 15 19 989.1 - 3.0 - Partly cloudy 10 - - - -
28/05:00pm 11.3 W 24 36 989.4 - 3.0 - Partly cloudy 8 - - - -
28/04:40pm 13.2 NNW 17 35 988.7 - 2.8 - Partly cloudy 10 - - - -
28/04:38pm 13.7 NNW 15 27 988.6 - 2.8 - Partly cloudy 10 - - - -
28/04:30pm 13.8 N 13 17 988.1 - 2.8 - Partly cloudy 10 - - - -
28/04:09pm 13.5 N 13 20 988.2 - 2.6 - Partly cloudy 10 - - - -
28/04:00pm 13.0 N 14 19 988.8 - 2.6 - Partly cloudy 7 - - - -
28/03:56pm 13.0 NNE 16 26 988.6 - 2.6 - Partly cloudy 4 - - - -
28/03:47pm 13.1 NNE 17 26 988.1 - 1.8 - Partly cloudy 5 - - - -
28/03:43pm 13.4 NNE 15 25 988.1 - 1.4 - Partly cloudy 8 - - - -
28/03:30pm 14.1 NNE 17 25 987.6 - 0.8 - Partly cloudy 10 - - - -
28/03:07pm 13.7 NNE 18 28 987.9 - 0.8 - Partly cloudy 10 - - - -
28/03:00pm 13.7 NNE 18 27 988.8 - 0.8 - Cloudy 10 - - - -
28/02:31pm 12.9 NE 20 32 989.6 - 0.8 - Partly cloudy 10 - - - -
28/02:30pm 12.9 NE 21 34 989.6 - 0.8 - Partly cloudy 10 - - - -
28/02:00pm 13.0 NNE 21 33 990.8 - 0.8 - Cloudy 10 - - - -
28/01:57pm 13.1 NNE 22 33 990.9 - 0.8 - Cloudy 10 - - - -
28/01:38pm 13.1 NNE 24 35 991.9 - 0.6 - Cloudy 5 - - - -
28/01:30pm 13.1 NNE 25 38 992.9 - 0.0 - Cloudy 10 - - - -
28/01:10pm 13.6 NNE 23 35 993.2 - 0.0 - Partly cloudy 10 - - - -
28/01:00pm 14.3 NE 28 38 993.3 - 0.0 - Partly cloudy 10 - - - -
28/12:30pm 15.9 NNE 27 41 993.7 - 0.0 - Partly cloudy 10 - - - -
28/12:00pm 15.4 NNE 24 36 993.7 - 0.0 - Partly cloudy 10 - - - -
28/11:57am 15.5 NNE 25 38 994.1 - 0.0 - Partly cloudy 10 - - - -
28/11:30am 15.6 NNE 21 33 996.1 - 0.0 - Partly cloudy 10 - - - -
28/11:18am 15.5 NNE 17 27 996.2 - 0.0 - Partly cloudy 10 - - - -
28/11:00am 15.8 NE 16 25 996.6 - 0.0 - Partly cloudy 10 - - - -
28/10:30am 15.9 NE 21 31 997.3 - 0.0 - - 10 - - - -
28/10:00am 16.7 NNE 20 31 998.4 - 0.0 - - 10 - - - -
28/09:30am 16.2 NNE 20 32 999.9 - 0.0 - - 10 - - - -
28/09:07am 15.7 NNE 17 30 1000.6 - 0.0 - - 10 - - - -
28/09:00am 15.5 NNE 17 26 1000.9 - 0.0 - - 10 - - - -
28/08:37am 14.9 NNE 18 28 1001.9 - 0.0 - - 10 - - - -
28/08:30am 14.7 NNE 17 25 1002.0 - 0.0 - - 10 - - - -
28/08:02am 13.9 NNE 15 25 1002.8 - 0.0 - - 10 - - - -
28/08:00am 14.0 NNE 14 20 1002.9 - 0.0 - - 10 - - - -
28/07:30am 13.3 NNE 12 19 1003.6 - 0.0 - - 10 - - - -
28/07:00am 12.1 ENE 10 13 1004.1 - 0.0 - - 10 - - - -
28/06:30am 10.9 ENE 8 10 1005.3 - 0.0 - - 10 - - - -
28/06:00am 10.7 NE 9 11 1005.7 - 0.0 - - 10 - - - -
28/05:30am 10.1 NE 7 9 1006.2 - 0.0 - - 10 - - - -
28/05:00am 10.2 NE 7 8 1006.5 - 0.0 - - 10 - - - -
28/04:30am 6.1 N 3 5 1007.0 - 0.0 - - 10 - - - -
28/04:00am 9.8 NNE 4 5 1007.3 - 0.0 - - 10 - - - -
28/03:30am 10.3 NNE 6 8 1007.8 - 0.0 - - 10 - - - -
28/03:00am 9.2 NNE 5 7 1008.4 - 0.0 - - 10 - - - -
28/02:30am 6.0 CALM 0 0 1008.8 - 0.0 - - 10 - - - -
28/02:00am 6.3 CALM 0 0 1009.5 - 0.0 - - 10 - - - -
28/01:30am 8.8 N 4 5 1009.9 - 0.0 - - 10 - - - -
28/01:00am 8.5 N 5 6 1010.3 - 0.0 - - 10 - - - -
28/12:30am 7.2 CALM 0 0 1010.9 - 0.0 - - 10 - - - -
28/12:00am 7.9 CALM 0 0 1011.1 - 0.0 - - 10 - - - -
 
Date/Time
CST
Temp
°C
Wind Pressure Rain since
9am
mm
Weather Cloud Vis
km
Sea
Height
m
Swell
Dir  Spd
kts
Gust
kts
hPa Trend Height
m
Period
s
Dir
27/11:30pm 8.5 CALM 0 0 1011.5 - 0.0 - - 10 - - - -
27/11:00pm 10.0 N 4 5 1011.5 - 0.0 - - 10 - - - -
27/10:30pm 9.6 N 5 6 1011.9 - 0.0 - - 10 - - - -
27/10:00pm 10.2 N 4 5 1012.2 - 0.0 - - 10 - - - -
27/09:30pm 10.1 N 5 5 1012.6 - 0.0 - Partly cloudy 10 - - - -
27/09:00pm 9.4 NNW 5 6 1012.8 - 0.0 - - 10 - - - -
27/08:30pm 10.7 NW 3 3 1013.0 - 0.0 - - 10 - - - -
27/08:00pm 11.5 NNW 3 4 1013.1 - 0.0 - Partly cloudy 10 - - - -
27/07:30pm 12.7 NNW 4 5 1013.1 - 0.0 - Cloudy 10 - - - -
27/07:00pm 13.3 NNW 5 8 1013.1 - 0.0 - Cloudy 10 - - - -
27/06:30pm 13.5 NW 6 8 1013.1 - 0.0 - Cloudy 10 - - - -
27/06:00pm 13.7 NW 9 11 1013.0 - 0.0 - Cloudy 10 - - - -
27/05:30pm 14.0 NW 10 14 1012.9 - 0.0 - Cloudy 10 - - - -
27/05:00pm 14.3 NW 11 14 1012.8 - 0.0 - Cloudy 10 - - - -
27/04:30pm 15.0 NW 12 16 1012.7 - 0.0 - Cloudy 10 - - - -
27/04:00pm 15.0 NW 11 15 1012.8 - 0.0 - Cloudy 10 - - - -
27/03:30pm 15.5 NW 11 15 1013.0 - 0.0 - Cloudy 10 - - - -
27/03:00pm 15.4 WNW 14 20 1013.3 - 0.0 - Cloudy 10 - - - -
27/02:30pm 15.5 WNW 13 18 1013.2 - 0.0 - Partly cloudy 10 - - - -
27/02:00pm 15.2 NW 14 19 1013.6 - 0.0 - Cloudy 10 - - - -
27/01:30pm 15.2 WNW 16 22 1013.8 - 0.0 - Partly cloudy 10 - - - -
27/01:00pm 15.4 WNW 15 21 1014.0 - 0.0 - Partly cloudy 10 - - - -
27/12:30pm 15.6 WNW 16 20 1014.2 - 0.0 - Cloudy 10 - - - -
27/12:00pm 16.4 WNW 15 21 1014.5 - 0.0 - Mostly cloudy 10 - - - -
27/11:30am 15.9 WNW 14 20 1014.7 - 0.0 - Partly cloudy 10 - - - -
27/11:00am 15.8 WNW 16 22 1014.7 - 0.0 - Partly cloudy 10 - - - -
27/10:30am 14.9 WNW 14 19 1014.9 - 0.0 - Partly cloudy 10 - - - -
27/10:00am 15.3 WNW 14 21 1015.2 - 0.0 - Partly cloudy 10 - - - -
27/09:30am 15.2 WNW 13 19 1015.2 - 0.0 - Partly cloudy 10 - - - -

Other Formats:

Comma delimited format used in spreadsheet applications
http://www.bom.gov.au/fwo/IDS60701/IDS60701.95807.axf

JavaScript Object Notation format (JSON) in row-major order
http://www.bom.gov.au/fwo/IDS60701/IDS60701.95807.json